<?xml version="1.0" encoding="UTF-8" ?>
<gpx version="1.1" xmlns:xsi="http://www.w3.org/2001/XMLSchema-instance" 
    xmlns="http://www.topografix.com/GPX/1/1"
    xsi:schemaLocation="http://www.topografix.com/GPX/1/1 http://www.topografix.com/GPX/1/1/gpx.xsd" 
    creator="Openrunner - https://www.openrunner.com" >	<trk>
	                   <name>pommet-beaumeyranes</name>
						<trkseg>
					<trkpt lat="43.769040" lon="4.732570">
						<ele>67</ele>
						<time>2026-02-13T13:23:57Z</time>
					</trkpt>
					<trkpt lat="43.768960" lon="4.732970">
						<ele>65</ele>
						<time>2026-02-13T13:24:37Z</time>
					</trkpt>
					<trkpt lat="43.767920" lon="4.733670">
						<ele>72</ele>
						<time>2026-02-13T13:27:11Z</time>
					</trkpt>
					<trkpt lat="43.767370" lon="4.734130">
						<ele>75</ele>
						<time>2026-02-13T13:28:37Z</time>
					</trkpt>
					<trkpt lat="43.766940" lon="4.734450">
						<ele>77</ele>
						<time>2026-02-13T13:29:42Z</time>
					</trkpt>
					<trkpt lat="43.766280" lon="4.735220">
						<ele>78</ele>
						<time>2026-02-13T13:31:37Z</time>
					</trkpt>
					<trkpt lat="43.765560" lon="4.736190">
						<ele>82</ele>
						<time>2026-02-13T13:33:51Z</time>
					</trkpt>
					<trkpt lat="43.765130" lon="4.736860">
						<ele>82</ele>
						<time>2026-02-13T13:35:18Z</time>
					</trkpt>
					<trkpt lat="43.764800" lon="4.737120">
						<ele>83</ele>
						<time>2026-02-13T13:36:08Z</time>
					</trkpt>
					<trkpt lat="43.764490" lon="4.737440">
						<ele>84</ele>
						<time>2026-02-13T13:37:00Z</time>
					</trkpt>
					<trkpt lat="43.764330" lon="4.738070">
						<ele>88</ele>
						<time>2026-02-13T13:38:04Z</time>
					</trkpt>
					<trkpt lat="43.764240" lon="4.738660">
						<ele>93</ele>
						<time>2026-02-13T13:39:03Z</time>
					</trkpt>
					<trkpt lat="43.764400" lon="4.739170">
						<ele>96</ele>
						<time>2026-02-13T13:39:56Z</time>
					</trkpt>
					<trkpt lat="43.764610" lon="4.739940">
						<ele>95</ele>
						<time>2026-02-13T13:41:15Z</time>
					</trkpt>
					<trkpt lat="43.764980" lon="4.741340">
						<ele>96</ele>
						<time>2026-02-13T13:43:39Z</time>
					</trkpt>
					<trkpt lat="43.765170" lon="4.742150">
						<ele>102</ele>
						<time>2026-02-13T13:45:01Z</time>
					</trkpt>
					<trkpt lat="43.765110" lon="4.742590">
						<ele>103</ele>
						<time>2026-02-13T13:45:44Z</time>
					</trkpt>
					<trkpt lat="43.765010" lon="4.743030">
						<ele>102</ele>
						<time>2026-02-13T13:46:29Z</time>
					</trkpt>
					<trkpt lat="43.764850" lon="4.743510">
						<ele>108</ele>
						<time>2026-02-13T13:47:20Z</time>
					</trkpt>
					<trkpt lat="43.764950" lon="4.744300">
						<ele>108</ele>
						<time>2026-02-13T13:48:37Z</time>
					</trkpt>
					<trkpt lat="43.765100" lon="4.744940">
						<ele>111</ele>
						<time>2026-02-13T13:49:42Z</time>
					</trkpt>
					<trkpt lat="43.765630" lon="4.745950">
						<ele>112</ele>
						<time>2026-02-13T13:51:42Z</time>
					</trkpt>
					<trkpt lat="43.765660" lon="4.746800">
						<ele>116</ele>
						<time>2026-02-13T13:53:04Z</time>
					</trkpt>
					<trkpt lat="43.765420" lon="4.747620">
						<ele>122</ele>
						<time>2026-02-13T13:54:29Z</time>
					</trkpt>
					<trkpt lat="43.765050" lon="4.748140">
						<ele>122</ele>
						<time>2026-02-13T13:55:40Z</time>
					</trkpt>
					<trkpt lat="43.764640" lon="4.748530">
						<ele>128</ele>
						<time>2026-02-13T13:56:46Z</time>
					</trkpt>
					<trkpt lat="43.764480" lon="4.748740">
						<ele>131</ele>
						<time>2026-02-13T13:57:16Z</time>
					</trkpt>
					<trkpt lat="43.764420" lon="4.749050">
						<ele>133</ele>
						<time>2026-02-13T13:57:47Z</time>
					</trkpt>
					<trkpt lat="43.765280" lon="4.749710">
						<ele>134</ele>
						<time>2026-02-13T13:59:58Z</time>
					</trkpt>
					<trkpt lat="43.765610" lon="4.750040">
						<ele>139</ele>
						<time>2026-02-13T14:00:52Z</time>
					</trkpt>
					<trkpt lat="43.765850" lon="4.750490">
						<ele>142</ele>
						<time>2026-02-13T14:01:46Z</time>
					</trkpt>
					<trkpt lat="43.766020" lon="4.751290">
						<ele>147</ele>
						<time>2026-02-13T14:03:06Z</time>
					</trkpt>
					<trkpt lat="43.765700" lon="4.752460">
						<ele>154</ele>
						<time>2026-02-13T14:05:07Z</time>
					</trkpt>
					<trkpt lat="43.765420" lon="4.752940">
						<ele>152</ele>
						<time>2026-02-13T14:06:06Z</time>
					</trkpt>
					<trkpt lat="43.765310" lon="4.753510">
						<ele>152</ele>
						<time>2026-02-13T14:07:03Z</time>
					</trkpt>
					<trkpt lat="43.765240" lon="4.754670">
						<ele>152</ele>
						<time>2026-02-13T14:08:55Z</time>
					</trkpt>
					<trkpt lat="43.765010" lon="4.755900">
						<ele>164</ele>
						<time>2026-02-13T14:10:58Z</time>
					</trkpt>
					<trkpt lat="43.764740" lon="4.756780">
						<ele>166</ele>
						<time>2026-02-13T14:12:30Z</time>
					</trkpt>
					<trkpt lat="43.764830" lon="4.757480">
						<ele>170</ele>
						<time>2026-02-13T14:13:39Z</time>
					</trkpt>
					<trkpt lat="43.764830" lon="4.759030">
						<ele>177</ele>
						<time>2026-02-13T14:16:08Z</time>
					</trkpt>
					<trkpt lat="43.764580" lon="4.760840">
						<ele>189</ele>
						<time>2026-02-13T14:19:06Z</time>
					</trkpt>
					<trkpt lat="43.764570" lon="4.762060">
						<ele>191</ele>
						<time>2026-02-13T14:21:03Z</time>
					</trkpt>
					<trkpt lat="43.764360" lon="4.762830">
						<ele>195</ele>
						<time>2026-02-13T14:22:22Z</time>
					</trkpt>
					<trkpt lat="43.764020" lon="4.762720">
						<ele>198</ele>
						<time>2026-02-13T14:23:09Z</time>
					</trkpt>
					<trkpt lat="43.763680" lon="4.762960">
						<ele>200</ele>
						<time>2026-02-13T14:24:00Z</time>
					</trkpt>
					<trkpt lat="43.763330" lon="4.763520">
						<ele>203</ele>
						<time>2026-02-13T14:25:11Z</time>
					</trkpt>
					<trkpt lat="43.762740" lon="4.763650">
						<ele>206</ele>
						<time>2026-02-13T14:26:31Z</time>
					</trkpt>
					<trkpt lat="43.762330" lon="4.762740">
						<ele>209</ele>
						<time>2026-02-13T14:28:14Z</time>
					</trkpt>
					<trkpt lat="43.761970" lon="4.762620">
						<ele>212</ele>
						<time>2026-02-13T14:29:04Z</time>
					</trkpt>
					<trkpt lat="43.761620" lon="4.762700">
						<ele>215</ele>
						<time>2026-02-13T14:29:51Z</time>
					</trkpt>
					<trkpt lat="43.761150" lon="4.763220">
						<ele>218</ele>
						<time>2026-02-13T14:31:11Z</time>
					</trkpt>
					<trkpt lat="43.760790" lon="4.763840">
						<ele>223</ele>
						<time>2026-02-13T14:32:28Z</time>
					</trkpt>
					<trkpt lat="43.760710" lon="4.764600">
						<ele>227</ele>
						<time>2026-02-13T14:33:42Z</time>
					</trkpt>
					<trkpt lat="43.760610" lon="4.765160">
						<ele>227</ele>
						<time>2026-02-13T14:34:38Z</time>
					</trkpt>
					<trkpt lat="43.760620" lon="4.765740">
						<ele>224</ele>
						<time>2026-02-13T14:35:34Z</time>
					</trkpt>
					<trkpt lat="43.760430" lon="4.766120">
						<ele>225</ele>
						<time>2026-02-13T14:36:18Z</time>
					</trkpt>
					<trkpt lat="43.760150" lon="4.767670">
						<ele>225</ele>
						<time>2026-02-13T14:38:52Z</time>
					</trkpt>
					<trkpt lat="43.760190" lon="4.768500">
						<ele>221</ele>
						<time>2026-02-13T14:40:12Z</time>
					</trkpt>
					<trkpt lat="43.760440" lon="4.769240">
						<ele>221</ele>
						<time>2026-02-13T14:41:31Z</time>
					</trkpt>
					<trkpt lat="43.760380" lon="4.769570">
						<ele>221</ele>
						<time>2026-02-13T14:42:04Z</time>
					</trkpt>
					<trkpt lat="43.760220" lon="4.769740">
						<ele>221</ele>
						<time>2026-02-13T14:42:31Z</time>
					</trkpt>
					<trkpt lat="43.759930" lon="4.770220">
						<ele>223</ele>
						<time>2026-02-13T14:43:31Z</time>
					</trkpt>
					<trkpt lat="43.759270" lon="4.771070">
						<ele>223</ele>
						<time>2026-02-13T14:45:31Z</time>
					</trkpt>
					<trkpt lat="43.759280" lon="4.771410">
						<ele>224</ele>
						<time>2026-02-13T14:46:04Z</time>
					</trkpt>
					<trkpt lat="43.759390" lon="4.771800">
						<ele>224</ele>
						<time>2026-02-13T14:46:45Z</time>
					</trkpt>
					<trkpt lat="43.759400" lon="4.772250">
						<ele>223</ele>
						<time>2026-02-13T14:47:28Z</time>
					</trkpt>
					<trkpt lat="43.759300" lon="4.772590">
						<ele>224</ele>
						<time>2026-02-13T14:48:03Z</time>
					</trkpt>
					<trkpt lat="43.758830" lon="4.772790">
						<ele>224</ele>
						<time>2026-02-13T14:49:09Z</time>
					</trkpt>
					<trkpt lat="43.758600" lon="4.772940">
						<ele>223</ele>
						<time>2026-02-13T14:49:43Z</time>
					</trkpt>
					<trkpt lat="43.758460" lon="4.773080">
						<ele>223</ele>
						<time>2026-02-13T14:50:06Z</time>
					</trkpt>
					<trkpt lat="43.758530" lon="4.773500">
						<ele>225</ele>
						<time>2026-02-13T14:50:48Z</time>
					</trkpt>
					<trkpt lat="43.758690" lon="4.773770">
						<ele>223</ele>
						<time>2026-02-13T14:51:21Z</time>
					</trkpt>
					<trkpt lat="43.758770" lon="4.774050">
						<ele>222</ele>
						<time>2026-02-13T14:51:50Z</time>
					</trkpt>
					<trkpt lat="43.758740" lon="4.774690">
						<ele>218</ele>
						<time>2026-02-13T14:52:52Z</time>
					</trkpt>
					<trkpt lat="43.759010" lon="4.775680">
						<ele>217</ele>
						<time>2026-02-13T14:54:34Z</time>
					</trkpt>
					<trkpt lat="43.759160" lon="4.776250">
						<ele>220</ele>
						<time>2026-02-13T14:55:32Z</time>
					</trkpt>
					<trkpt lat="43.759210" lon="4.776610">
						<ele>222</ele>
						<time>2026-02-13T14:56:08Z</time>
					</trkpt>
					<trkpt lat="43.759520" lon="4.777050">
						<ele>221</ele>
						<time>2026-02-13T14:57:07Z</time>
					</trkpt>
					<trkpt lat="43.759830" lon="4.777350">
						<ele>223</ele>
						<time>2026-02-13T14:57:58Z</time>
					</trkpt>
					<trkpt lat="43.760280" lon="4.777480">
						<ele>224</ele>
						<time>2026-02-13T14:58:59Z</time>
					</trkpt>
					<trkpt lat="43.760350" lon="4.777740">
						<ele>225</ele>
						<time>2026-02-13T14:59:26Z</time>
					</trkpt>
					<trkpt lat="43.760370" lon="4.778300">
						<ele>226</ele>
						<time>2026-02-13T15:00:20Z</time>
					</trkpt>
					<trkpt lat="43.760370" lon="4.778520">
						<ele>227</ele>
						<time>2026-02-13T15:00:41Z</time>
					</trkpt>
					<trkpt lat="43.760390" lon="4.778820">
						<ele>229</ele>
						<time>2026-02-13T15:01:10Z</time>
					</trkpt>
					<trkpt lat="43.760420" lon="4.778970">
						<ele>230</ele>
						<time>2026-02-13T15:01:25Z</time>
					</trkpt>
					<trkpt lat="43.760390" lon="4.779270">
						<ele>232</ele>
						<time>2026-02-13T15:01:54Z</time>
					</trkpt>
					<trkpt lat="43.760360" lon="4.779400">
						<ele>233</ele>
						<time>2026-02-13T15:02:07Z</time>
					</trkpt>
					<trkpt lat="43.760250" lon="4.779880">
						<ele>234</ele>
						<time>2026-02-13T15:02:56Z</time>
					</trkpt>
					<trkpt lat="43.760120" lon="4.780680">
						<ele>233</ele>
						<time>2026-02-13T15:04:15Z</time>
					</trkpt>
					<trkpt lat="43.759810" lon="4.782060">
						<ele>235</ele>
						<time>2026-02-13T15:06:34Z</time>
					</trkpt>
					<trkpt lat="43.758870" lon="4.782240">
						<ele>224</ele>
						<time>2026-02-13T15:08:41Z</time>
					</trkpt>
					<trkpt lat="43.758340" lon="4.782750">
						<ele>228</ele>
						<time>2026-02-13T15:10:07Z</time>
					</trkpt>
					<trkpt lat="43.757620" lon="4.782580">
						<ele>219</ele>
						<time>2026-02-13T15:11:44Z</time>
					</trkpt>
					<trkpt lat="43.756900" lon="4.782970">
						<ele>215</ele>
						<time>2026-02-13T15:13:27Z</time>
					</trkpt>
					<trkpt lat="43.756560" lon="4.783880">
						<ele>226</ele>
						<time>2026-02-13T15:15:06Z</time>
					</trkpt>
					<trkpt lat="43.756190" lon="4.783580">
						<ele>216</ele>
						<time>2026-02-13T15:16:03Z</time>
					</trkpt>
					<trkpt lat="43.755750" lon="4.783490">
						<ele>210</ele>
						<time>2026-02-13T15:17:03Z</time>
					</trkpt>
					<trkpt lat="43.755440" lon="4.783720">
						<ele>213</ele>
						<time>2026-02-13T15:17:50Z</time>
					</trkpt>
					<trkpt lat="43.754980" lon="4.783970">
						<ele>212</ele>
						<time>2026-02-13T15:18:56Z</time>
					</trkpt>
					<trkpt lat="43.754400" lon="4.784090">
						<ele>202</ele>
						<time>2026-02-13T15:20:14Z</time>
					</trkpt>
					<trkpt lat="43.754220" lon="4.784440">
						<ele>203</ele>
						<time>2026-02-13T15:20:55Z</time>
					</trkpt>
					<trkpt lat="43.753860" lon="4.785170">
						<ele>203</ele>
						<time>2026-02-13T15:22:21Z</time>
					</trkpt>
					<trkpt lat="43.753820" lon="4.785550">
						<ele>203</ele>
						<time>2026-02-13T15:22:58Z</time>
					</trkpt>
					<trkpt lat="43.753940" lon="4.786340">
						<ele>202</ele>
						<time>2026-02-13T15:24:15Z</time>
					</trkpt>
					<trkpt lat="43.754200" lon="4.786830">
						<ele>204</ele>
						<time>2026-02-13T15:25:14Z</time>
					</trkpt>
					<trkpt lat="43.754250" lon="4.786860">
						<ele>205</ele>
						<time>2026-02-13T15:25:21Z</time>
					</trkpt>
					<trkpt lat="43.754300" lon="4.786900">
						<ele>205</ele>
						<time>2026-02-13T15:25:29Z</time>
					</trkpt>
					<trkpt lat="43.754610" lon="4.787040">
						<ele>210</ele>
						<time>2026-02-13T15:26:12Z</time>
					</trkpt>
					<trkpt lat="43.754990" lon="4.787100">
						<ele>214</ele>
						<time>2026-02-13T15:27:04Z</time>
					</trkpt>
					<trkpt lat="43.755310" lon="4.787240">
						<ele>214</ele>
						<time>2026-02-13T15:27:48Z</time>
					</trkpt>
					<trkpt lat="43.755550" lon="4.787200">
						<ele>215</ele>
						<time>2026-02-13T15:28:21Z</time>
					</trkpt>
					<trkpt lat="43.755650" lon="4.787300">
						<ele>214</ele>
						<time>2026-02-13T15:28:37Z</time>
					</trkpt>
					<trkpt lat="43.755480" lon="4.787460">
						<ele>211</ele>
						<time>2026-02-13T15:29:04Z</time>
					</trkpt>
					<trkpt lat="43.755240" lon="4.787530">
						<ele>210</ele>
						<time>2026-02-13T15:29:37Z</time>
					</trkpt>
					<trkpt lat="43.754850" lon="4.787580">
						<ele>210</ele>
						<time>2026-02-13T15:30:29Z</time>
					</trkpt>
					<trkpt lat="43.754350" lon="4.787780">
						<ele>212</ele>
						<time>2026-02-13T15:31:39Z</time>
					</trkpt>
					<trkpt lat="43.754240" lon="4.787950">
						<ele>215</ele>
						<time>2026-02-13T15:32:01Z</time>
					</trkpt>
					<trkpt lat="43.753750" lon="4.787890">
						<ele>209</ele>
						<time>2026-02-13T15:33:07Z</time>
					</trkpt>
					<trkpt lat="43.753510" lon="4.788060">
						<ele>210</ele>
						<time>2026-02-13T15:33:43Z</time>
					</trkpt>
					<trkpt lat="43.753350" lon="4.788380">
						<ele>213</ele>
						<time>2026-02-13T15:34:20Z</time>
					</trkpt>
					<trkpt lat="43.753180" lon="4.788940">
						<ele>217</ele>
						<time>2026-02-13T15:35:19Z</time>
					</trkpt>
					<trkpt lat="43.753220" lon="4.789580">
						<ele>223</ele>
						<time>2026-02-13T15:36:21Z</time>
					</trkpt>
					<trkpt lat="43.753030" lon="4.790230">
						<ele>223</ele>
						<time>2026-02-13T15:37:28Z</time>
					</trkpt>
					<trkpt lat="43.752940" lon="4.791310">
						<ele>228</ele>
						<time>2026-02-13T15:39:13Z</time>
					</trkpt>
					<trkpt lat="43.752650" lon="4.791500">
						<ele>227</ele>
						<time>2026-02-13T15:39:56Z</time>
					</trkpt>
					<trkpt lat="43.752750" lon="4.791780">
						<ele>228</ele>
						<time>2026-02-13T15:40:26Z</time>
					</trkpt>
					<trkpt lat="43.752630" lon="4.792090">
						<ele>229</ele>
						<time>2026-02-13T15:41:00Z</time>
					</trkpt>
					<trkpt lat="43.752410" lon="4.792420">
						<ele>230</ele>
						<time>2026-02-13T15:41:43Z</time>
					</trkpt>
					<trkpt lat="43.752190" lon="4.792950">
						<ele>231</ele>
						<time>2026-02-13T15:42:42Z</time>
					</trkpt>
					<trkpt lat="43.752230" lon="4.793320">
						<ele>235</ele>
						<time>2026-02-13T15:43:18Z</time>
					</trkpt>
					<trkpt lat="43.752400" lon="4.793540">
						<ele>241</ele>
						<time>2026-02-13T15:43:49Z</time>
					</trkpt>
					<trkpt lat="43.752470" lon="4.793820">
						<ele>245</ele>
						<time>2026-02-13T15:44:18Z</time>
					</trkpt>
					<trkpt lat="43.752380" lon="4.794180">
						<ele>246</ele>
						<time>2026-02-13T15:44:54Z</time>
					</trkpt>
					<trkpt lat="43.752530" lon="4.794580">
						<ele>251</ele>
						<time>2026-02-13T15:45:38Z</time>
					</trkpt>
					<trkpt lat="43.752660" lon="4.795060">
						<ele>252</ele>
						<time>2026-02-13T15:46:27Z</time>
					</trkpt>
					<trkpt lat="43.752400" lon="4.795550">
						<ele>255</ele>
						<time>2026-02-13T15:47:26Z</time>
					</trkpt>
					<trkpt lat="43.752380" lon="4.795890">
						<ele>257</ele>
						<time>2026-02-13T15:47:59Z</time>
					</trkpt>
					<trkpt lat="43.752350" lon="4.796320">
						<ele>254</ele>
						<time>2026-02-13T15:48:40Z</time>
					</trkpt>
					<trkpt lat="43.752530" lon="4.796500">
						<ele>257</ele>
						<time>2026-02-13T15:49:10Z</time>
					</trkpt>
					<trkpt lat="43.752950" lon="4.796340">
						<ele>259</ele>
						<time>2026-02-13T15:50:08Z</time>
					</trkpt>
					<trkpt lat="43.753430" lon="4.796260">
						<ele>260</ele>
						<time>2026-02-13T15:51:13Z</time>
					</trkpt>
					<trkpt lat="43.753660" lon="4.796300">
						<ele>258</ele>
						<time>2026-02-13T15:51:44Z</time>
					</trkpt>
					<trkpt lat="43.753620" lon="4.796130">
						<ele>257</ele>
						<time>2026-02-13T15:52:01Z</time>
					</trkpt>
					<trkpt lat="43.753280" lon="4.796020">
						<ele>261</ele>
						<time>2026-02-13T15:52:47Z</time>
					</trkpt>
					<trkpt lat="43.752750" lon="4.795810">
						<ele>262</ele>
						<time>2026-02-13T15:54:01Z</time>
					</trkpt>
					<trkpt lat="43.752780" lon="4.795560">
						<ele>258</ele>
						<time>2026-02-13T15:54:25Z</time>
					</trkpt>
					<trkpt lat="43.752790" lon="4.795370">
						<ele>255</ele>
						<time>2026-02-13T15:54:44Z</time>
					</trkpt>
					<trkpt lat="43.752750" lon="4.795170">
						<ele>253</ele>
						<time>2026-02-13T15:55:04Z</time>
					</trkpt>
					<trkpt lat="43.752710" lon="4.795050">
						<ele>251</ele>
						<time>2026-02-13T15:55:16Z</time>
					</trkpt>
					<trkpt lat="43.752650" lon="4.794930">
						<ele>251</ele>
						<time>2026-02-13T15:55:31Z</time>
					</trkpt>
					<trkpt lat="43.752480" lon="4.794430">
						<ele>250</ele>
						<time>2026-02-13T15:56:24Z</time>
					</trkpt>
					<trkpt lat="43.752390" lon="4.794070">
						<ele>245</ele>
						<time>2026-02-13T15:57:01Z</time>
					</trkpt>
					<trkpt lat="43.752510" lon="4.793740">
						<ele>245</ele>
						<time>2026-02-13T15:57:36Z</time>
					</trkpt>
					<trkpt lat="43.752450" lon="4.793610">
						<ele>243</ele>
						<time>2026-02-13T15:57:51Z</time>
					</trkpt>
					<trkpt lat="43.752320" lon="4.793450">
						<ele>238</ele>
						<time>2026-02-13T15:58:14Z</time>
					</trkpt>
					<trkpt lat="43.752190" lon="4.793210">
						<ele>233</ele>
						<time>2026-02-13T15:58:43Z</time>
					</trkpt>
					<trkpt lat="43.752260" lon="4.792860">
						<ele>232</ele>
						<time>2026-02-13T15:59:18Z</time>
					</trkpt>
					<trkpt lat="43.752370" lon="4.792510">
						<ele>230</ele>
						<time>2026-02-13T15:59:55Z</time>
					</trkpt>
					<trkpt lat="43.752580" lon="4.792200">
						<ele>229</ele>
						<time>2026-02-13T16:00:36Z</time>
					</trkpt>
					<trkpt lat="43.752690" lon="4.791930">
						<ele>228</ele>
						<time>2026-02-13T16:01:06Z</time>
					</trkpt>
					<trkpt lat="43.752720" lon="4.791630">
						<ele>228</ele>
						<time>2026-02-13T16:01:35Z</time>
					</trkpt>
					<trkpt lat="43.752680" lon="4.791560">
						<ele>227</ele>
						<time>2026-02-13T16:01:44Z</time>
					</trkpt>
					<trkpt lat="43.752700" lon="4.791470">
						<ele>227</ele>
						<time>2026-02-13T16:01:53Z</time>
					</trkpt>
					<trkpt lat="43.752980" lon="4.791430">
						<ele>228</ele>
						<time>2026-02-13T16:02:30Z</time>
					</trkpt>
					<trkpt lat="43.753040" lon="4.791520">
						<ele>228</ele>
						<time>2026-02-13T16:02:42Z</time>
					</trkpt>
					<trkpt lat="43.753250" lon="4.791480">
						<ele>229</ele>
						<time>2026-02-13T16:03:10Z</time>
					</trkpt>
					<trkpt lat="43.753460" lon="4.791460">
						<ele>230</ele>
						<time>2026-02-13T16:03:38Z</time>
					</trkpt>
					<trkpt lat="43.753670" lon="4.791460">
						<ele>232</ele>
						<time>2026-02-13T16:04:06Z</time>
					</trkpt>
					<trkpt lat="43.753830" lon="4.791490">
						<ele>232</ele>
						<time>2026-02-13T16:04:28Z</time>
					</trkpt>
					<trkpt lat="43.753960" lon="4.791490">
						<ele>233</ele>
						<time>2026-02-13T16:04:45Z</time>
					</trkpt>
					<trkpt lat="43.754050" lon="4.791510">
						<ele>233</ele>
						<time>2026-02-13T16:04:57Z</time>
					</trkpt>
					<trkpt lat="43.754160" lon="4.791550">
						<ele>232</ele>
						<time>2026-02-13T16:05:13Z</time>
					</trkpt>
					<trkpt lat="43.754240" lon="4.791560">
						<ele>232</ele>
						<time>2026-02-13T16:05:23Z</time>
					</trkpt>
					<trkpt lat="43.754360" lon="4.791560">
						<ele>232</ele>
						<time>2026-02-13T16:05:39Z</time>
					</trkpt>
					<trkpt lat="43.754450" lon="4.791540">
						<ele>232</ele>
						<time>2026-02-13T16:05:52Z</time>
					</trkpt>
					<trkpt lat="43.754550" lon="4.791490">
						<ele>233</ele>
						<time>2026-02-13T16:06:06Z</time>
					</trkpt>
					<trkpt lat="43.754620" lon="4.791430">
						<ele>234</ele>
						<time>2026-02-13T16:06:17Z</time>
					</trkpt>
					<trkpt lat="43.754720" lon="4.791340">
						<ele>235</ele>
						<time>2026-02-13T16:06:33Z</time>
					</trkpt>
					<trkpt lat="43.754830" lon="4.791200">
						<ele>238</ele>
						<time>2026-02-13T16:06:53Z</time>
					</trkpt>
					<trkpt lat="43.755040" lon="4.790930">
						<ele>242</ele>
						<time>2026-02-13T16:07:31Z</time>
					</trkpt>
					<trkpt lat="43.755210" lon="4.790950">
						<ele>241</ele>
						<time>2026-02-13T16:07:54Z</time>
					</trkpt>
					<trkpt lat="43.755280" lon="4.791030">
						<ele>240</ele>
						<time>2026-02-13T16:08:06Z</time>
					</trkpt>
					<trkpt lat="43.755350" lon="4.791120">
						<ele>238</ele>
						<time>2026-02-13T16:08:18Z</time>
					</trkpt>
					<trkpt lat="43.755420" lon="4.791200">
						<ele>236</ele>
						<time>2026-02-13T16:08:31Z</time>
					</trkpt>
					<trkpt lat="43.755490" lon="4.791250">
						<ele>235</ele>
						<time>2026-02-13T16:08:41Z</time>
					</trkpt>
					<trkpt lat="43.755590" lon="4.791300">
						<ele>234</ele>
						<time>2026-02-13T16:08:55Z</time>
					</trkpt>
					<trkpt lat="43.755660" lon="4.791270">
						<ele>234</ele>
						<time>2026-02-13T16:09:05Z</time>
					</trkpt>
					<trkpt lat="43.755740" lon="4.791190">
						<ele>235</ele>
						<time>2026-02-13T16:09:18Z</time>
					</trkpt>
					<trkpt lat="43.755800" lon="4.791090">
						<ele>237</ele>
						<time>2026-02-13T16:09:31Z</time>
					</trkpt>
					<trkpt lat="43.755850" lon="4.791020">
						<ele>237</ele>
						<time>2026-02-13T16:09:40Z</time>
					</trkpt>
					<trkpt lat="43.755890" lon="4.790940">
						<ele>238</ele>
						<time>2026-02-13T16:09:50Z</time>
					</trkpt>
					<trkpt lat="43.755930" lon="4.790860">
						<ele>238</ele>
						<time>2026-02-13T16:09:59Z</time>
					</trkpt>
					<trkpt lat="43.755990" lon="4.790760">
						<ele>238</ele>
						<time>2026-02-13T16:10:12Z</time>
					</trkpt>
					<trkpt lat="43.756030" lon="4.790670">
						<ele>238</ele>
						<time>2026-02-13T16:10:22Z</time>
					</trkpt>
					<trkpt lat="43.756110" lon="4.790520">
						<ele>237</ele>
						<time>2026-02-13T16:10:40Z</time>
					</trkpt>
					<trkpt lat="43.756180" lon="4.790440">
						<ele>236</ele>
						<time>2026-02-13T16:10:52Z</time>
					</trkpt>
					<trkpt lat="43.756250" lon="4.790360">
						<ele>236</ele>
						<time>2026-02-13T16:11:04Z</time>
					</trkpt>
					<trkpt lat="43.756360" lon="4.790180">
						<ele>236</ele>
						<time>2026-02-13T16:11:27Z</time>
					</trkpt>
					<trkpt lat="43.756460" lon="4.790030">
						<ele>235</ele>
						<time>2026-02-13T16:11:46Z</time>
					</trkpt>
					<trkpt lat="43.756560" lon="4.789850">
						<ele>234</ele>
						<time>2026-02-13T16:12:08Z</time>
					</trkpt>
					<trkpt lat="43.756610" lon="4.789700">
						<ele>233</ele>
						<time>2026-02-13T16:12:24Z</time>
					</trkpt>
					<trkpt lat="43.756690" lon="4.789590">
						<ele>233</ele>
						<time>2026-02-13T16:12:39Z</time>
					</trkpt>
					<trkpt lat="43.756770" lon="4.789460">
						<ele>233</ele>
						<time>2026-02-13T16:12:56Z</time>
					</trkpt>
					<trkpt lat="43.756870" lon="4.789340">
						<ele>234</ele>
						<time>2026-02-13T16:13:13Z</time>
					</trkpt>
					<trkpt lat="43.756980" lon="4.789220">
						<ele>235</ele>
						<time>2026-02-13T16:13:32Z</time>
					</trkpt>
					<trkpt lat="43.757080" lon="4.789180">
						<ele>235</ele>
						<time>2026-02-13T16:13:46Z</time>
					</trkpt>
					<trkpt lat="43.757240" lon="4.789110">
						<ele>235</ele>
						<time>2026-02-13T16:14:08Z</time>
					</trkpt>
					<trkpt lat="43.757340" lon="4.789040">
						<ele>235</ele>
						<time>2026-02-13T16:14:23Z</time>
					</trkpt>
					<trkpt lat="43.757450" lon="4.788970">
						<ele>235</ele>
						<time>2026-02-13T16:14:39Z</time>
					</trkpt>
					<trkpt lat="43.757640" lon="4.788830">
						<ele>236</ele>
						<time>2026-02-13T16:15:08Z</time>
					</trkpt>
					<trkpt lat="43.757740" lon="4.788740">
						<ele>236</ele>
						<time>2026-02-13T16:15:24Z</time>
					</trkpt>
					<trkpt lat="43.757880" lon="4.788690">
						<ele>236</ele>
						<time>2026-02-13T16:15:43Z</time>
					</trkpt>
					<trkpt lat="43.758000" lon="4.788670">
						<ele>237</ele>
						<time>2026-02-13T16:15:59Z</time>
					</trkpt>
					<trkpt lat="43.758170" lon="4.788690">
						<ele>238</ele>
						<time>2026-02-13T16:16:22Z</time>
					</trkpt>
					<trkpt lat="43.758270" lon="4.788680">
						<ele>239</ele>
						<time>2026-02-13T16:16:36Z</time>
					</trkpt>
					<trkpt lat="43.758720" lon="4.788480">
						<ele>240</ele>
						<time>2026-02-13T16:17:39Z</time>
					</trkpt>
					<trkpt lat="43.759060" lon="4.788340">
						<ele>241</ele>
						<time>2026-02-13T16:18:26Z</time>
					</trkpt>
					<trkpt lat="43.759640" lon="4.788060">
						<ele>242</ele>
						<time>2026-02-13T16:19:48Z</time>
					</trkpt>
					<trkpt lat="43.759760" lon="4.787840">
						<ele>242</ele>
						<time>2026-02-13T16:20:15Z</time>
					</trkpt>
					<trkpt lat="43.759750" lon="4.787010">
						<ele>239</ele>
						<time>2026-02-13T16:21:35Z</time>
					</trkpt>
					<trkpt lat="43.759700" lon="4.786600">
						<ele>237</ele>
						<time>2026-02-13T16:22:15Z</time>
					</trkpt>
					<trkpt lat="43.759560" lon="4.786240">
						<ele>237</ele>
						<time>2026-02-13T16:22:54Z</time>
					</trkpt>
					<trkpt lat="43.759470" lon="4.785980">
						<ele>238</ele>
						<time>2026-02-13T16:23:22Z</time>
					</trkpt>
					<trkpt lat="43.759430" lon="4.785900">
						<ele>238</ele>
						<time>2026-02-13T16:23:31Z</time>
					</trkpt>
					<trkpt lat="43.759370" lon="4.785790">
						<ele>240</ele>
						<time>2026-02-13T16:23:44Z</time>
					</trkpt>
					<trkpt lat="43.759280" lon="4.785650">
						<ele>243</ele>
						<time>2026-02-13T16:24:03Z</time>
					</trkpt>
					<trkpt lat="43.759260" lon="4.785510">
						<ele>244</ele>
						<time>2026-02-13T16:24:16Z</time>
					</trkpt>
					<trkpt lat="43.759250" lon="4.785340">
						<ele>244</ele>
						<time>2026-02-13T16:24:33Z</time>
					</trkpt>
					<trkpt lat="43.759260" lon="4.785220">
						<ele>245</ele>
						<time>2026-02-13T16:24:44Z</time>
					</trkpt>
					<trkpt lat="43.759280" lon="4.785130">
						<ele>244</ele>
						<time>2026-02-13T16:24:53Z</time>
					</trkpt>
					<trkpt lat="43.759290" lon="4.785050">
						<ele>244</ele>
						<time>2026-02-13T16:25:01Z</time>
					</trkpt>
					<trkpt lat="43.759330" lon="4.784920">
						<ele>244</ele>
						<time>2026-02-13T16:25:15Z</time>
					</trkpt>
					<trkpt lat="43.759500" lon="4.784450">
						<ele>245</ele>
						<time>2026-02-13T16:26:06Z</time>
					</trkpt>
					<trkpt lat="43.759540" lon="4.784310">
						<ele>246</ele>
						<time>2026-02-13T16:26:20Z</time>
					</trkpt>
					<trkpt lat="43.759660" lon="4.784100">
						<ele>246</ele>
						<time>2026-02-13T16:26:46Z</time>
					</trkpt>
					<trkpt lat="43.759820" lon="4.783890">
						<ele>244</ele>
						<time>2026-02-13T16:27:15Z</time>
					</trkpt>
					<trkpt lat="43.759980" lon="4.783660">
						<ele>244</ele>
						<time>2026-02-13T16:27:46Z</time>
					</trkpt>
					<trkpt lat="43.760070" lon="4.783520">
						<ele>244</ele>
						<time>2026-02-13T16:28:04Z</time>
					</trkpt>
					<trkpt lat="43.760140" lon="4.783370">
						<ele>244</ele>
						<time>2026-02-13T16:28:21Z</time>
					</trkpt>
					<trkpt lat="43.760280" lon="4.783030">
						<ele>241</ele>
						<time>2026-02-13T16:28:59Z</time>
					</trkpt>
					<trkpt lat="43.760350" lon="4.782810">
						<ele>240</ele>
						<time>2026-02-13T16:29:22Z</time>
					</trkpt>
					<trkpt lat="43.760390" lon="4.782720">
						<ele>239</ele>
						<time>2026-02-13T16:29:32Z</time>
					</trkpt>
					<trkpt lat="43.760520" lon="4.782560">
						<ele>239</ele>
						<time>2026-02-13T16:29:56Z</time>
					</trkpt>
					<trkpt lat="43.760580" lon="4.782510">
						<ele>239</ele>
						<time>2026-02-13T16:30:05Z</time>
					</trkpt>
					<trkpt lat="43.760890" lon="4.782240">
						<ele>239</ele>
						<time>2026-02-13T16:30:54Z</time>
					</trkpt>
					<trkpt lat="43.760910" lon="4.782220">
						<ele>238</ele>
						<time>2026-02-13T16:30:57Z</time>
					</trkpt>
					<trkpt lat="43.760990" lon="4.782120">
						<ele>237</ele>
						<time>2026-02-13T16:31:12Z</time>
					</trkpt>
					<trkpt lat="43.761030" lon="4.782040">
						<ele>236</ele>
						<time>2026-02-13T16:31:21Z</time>
					</trkpt>
					<trkpt lat="43.761040" lon="4.781990">
						<ele>236</ele>
						<time>2026-02-13T16:31:26Z</time>
					</trkpt>
					<trkpt lat="43.761170" lon="4.781220">
						<ele>239</ele>
						<time>2026-02-13T16:32:42Z</time>
					</trkpt>
					<trkpt lat="43.761200" lon="4.780910">
						<ele>242</ele>
						<time>2026-02-13T16:33:12Z</time>
					</trkpt>
					<trkpt lat="43.761230" lon="4.780690">
						<ele>243</ele>
						<time>2026-02-13T16:33:34Z</time>
					</trkpt>
					<trkpt lat="43.761260" lon="4.780600">
						<ele>242</ele>
						<time>2026-02-13T16:33:43Z</time>
					</trkpt>
					<trkpt lat="43.761280" lon="4.780560">
						<ele>242</ele>
						<time>2026-02-13T16:33:48Z</time>
					</trkpt>
					<trkpt lat="43.761290" lon="4.780550">
						<ele>242</ele>
						<time>2026-02-13T16:33:50Z</time>
					</trkpt>
					<trkpt lat="43.761360" lon="4.780520">
						<ele>242</ele>
						<time>2026-02-13T16:34:00Z</time>
					</trkpt>
					<trkpt lat="43.761570" lon="4.780520">
						<ele>239</ele>
						<time>2026-02-13T16:34:28Z</time>
					</trkpt>
					<trkpt lat="43.761900" lon="4.780630">
						<ele>233</ele>
						<time>2026-02-13T16:35:13Z</time>
					</trkpt>
					<trkpt lat="43.761990" lon="4.780650">
						<ele>231</ele>
						<time>2026-02-13T16:35:25Z</time>
					</trkpt>
					<trkpt lat="43.762070" lon="4.780640">
						<ele>230</ele>
						<time>2026-02-13T16:35:36Z</time>
					</trkpt>
					<trkpt lat="43.762240" lon="4.780590">
						<ele>228</ele>
						<time>2026-02-13T16:35:59Z</time>
					</trkpt>
					<trkpt lat="43.762380" lon="4.780500">
						<ele>227</ele>
						<time>2026-02-13T16:36:20Z</time>
					</trkpt>
					<trkpt lat="43.762630" lon="4.780200">
						<ele>228</ele>
						<time>2026-02-13T16:37:04Z</time>
					</trkpt>
					<trkpt lat="43.762950" lon="4.779960">
						<ele>227</ele>
						<time>2026-02-13T16:37:52Z</time>
					</trkpt>
					<trkpt lat="43.763000" lon="4.779860">
						<ele>226</ele>
						<time>2026-02-13T16:38:04Z</time>
					</trkpt>
					<trkpt lat="43.762970" lon="4.779830">
						<ele>226</ele>
						<time>2026-02-13T16:38:09Z</time>
					</trkpt>
					<trkpt lat="43.762940" lon="4.779780">
						<ele>226</ele>
						<time>2026-02-13T16:38:15Z</time>
					</trkpt>
					<trkpt lat="43.762900" lon="4.779760">
						<ele>226</ele>
						<time>2026-02-13T16:38:21Z</time>
					</trkpt>
					<trkpt lat="43.762620" lon="4.779750">
						<ele>227</ele>
						<time>2026-02-13T16:38:58Z</time>
					</trkpt>
					<trkpt lat="43.762430" lon="4.779720">
						<ele>227</ele>
						<time>2026-02-13T16:39:24Z</time>
					</trkpt>
					<trkpt lat="43.762240" lon="4.779650">
						<ele>229</ele>
						<time>2026-02-13T16:39:50Z</time>
					</trkpt>
					<trkpt lat="43.761840" lon="4.779420">
						<ele>229</ele>
						<time>2026-02-13T16:40:48Z</time>
					</trkpt>
					<trkpt lat="43.761470" lon="4.779200">
						<ele>228</ele>
						<time>2026-02-13T16:41:41Z</time>
					</trkpt>
					<trkpt lat="43.761200" lon="4.779060">
						<ele>229</ele>
						<time>2026-02-13T16:42:20Z</time>
					</trkpt>
					<trkpt lat="43.761150" lon="4.779040">
						<ele>229</ele>
						<time>2026-02-13T16:42:27Z</time>
					</trkpt>
					<trkpt lat="43.760980" lon="4.778990">
						<ele>231</ele>
						<time>2026-02-13T16:42:50Z</time>
					</trkpt>
					<trkpt lat="43.760700" lon="4.778980">
						<ele>232</ele>
						<time>2026-02-13T16:43:27Z</time>
					</trkpt>
					<trkpt lat="43.760420" lon="4.778970">
						<ele>230</ele>
						<time>2026-02-13T16:44:05Z</time>
					</trkpt>
					<trkpt lat="43.760460" lon="4.779020">
						<ele>231</ele>
						<time>2026-02-13T16:44:12Z</time>
					</trkpt>
					<trkpt lat="43.760420" lon="4.778880">
						<ele>230</ele>
						<time>2026-02-13T16:44:27Z</time>
					</trkpt>
					<trkpt lat="43.760370" lon="4.778180">
						<ele>226</ele>
						<time>2026-02-13T16:45:34Z</time>
					</trkpt>
					<trkpt lat="43.760340" lon="4.777540">
						<ele>224</ele>
						<time>2026-02-13T16:46:36Z</time>
					</trkpt>
					<trkpt lat="43.760130" lon="4.777470">
						<ele>225</ele>
						<time>2026-02-13T16:47:05Z</time>
					</trkpt>
					<trkpt lat="43.759910" lon="4.777420">
						<ele>224</ele>
						<time>2026-02-13T16:47:35Z</time>
					</trkpt>
					<trkpt lat="43.759690" lon="4.777250">
						<ele>222</ele>
						<time>2026-02-13T16:48:08Z</time>
					</trkpt>
					<trkpt lat="43.759410" lon="4.776950">
						<ele>221</ele>
						<time>2026-02-13T16:48:56Z</time>
					</trkpt>
					<trkpt lat="43.759220" lon="4.776530">
						<ele>222</ele>
						<time>2026-02-13T16:49:43Z</time>
					</trkpt>
					<trkpt lat="43.759100" lon="4.776030">
						<ele>219</ele>
						<time>2026-02-13T16:50:34Z</time>
					</trkpt>
					<trkpt lat="43.758940" lon="4.775410">
						<ele>217</ele>
						<time>2026-02-13T16:51:38Z</time>
					</trkpt>
					<trkpt lat="43.758790" lon="4.774920">
						<ele>217</ele>
						<time>2026-02-13T16:52:29Z</time>
					</trkpt>
					<trkpt lat="43.758720" lon="4.774510">
						<ele>219</ele>
						<time>2026-02-13T16:53:10Z</time>
					</trkpt>
					<trkpt lat="43.758760" lon="4.774260">
						<ele>220</ele>
						<time>2026-02-13T16:53:34Z</time>
					</trkpt>
					<trkpt lat="43.758740" lon="4.773880">
						<ele>223</ele>
						<time>2026-02-13T16:54:11Z</time>
					</trkpt>
					<trkpt lat="43.758600" lon="4.773640">
						<ele>224</ele>
						<time>2026-02-13T16:54:41Z</time>
					</trkpt>
					<trkpt lat="43.758480" lon="4.773350">
						<ele>226</ele>
						<time>2026-02-13T16:55:13Z</time>
					</trkpt>
					<trkpt lat="43.758450" lon="4.773190">
						<ele>224</ele>
						<time>2026-02-13T16:55:29Z</time>
					</trkpt>
					<trkpt lat="43.758530" lon="4.773000">
						<ele>223</ele>
						<time>2026-02-13T16:55:50Z</time>
					</trkpt>
					<trkpt lat="43.758750" lon="4.772870">
						<ele>224</ele>
						<time>2026-02-13T16:56:22Z</time>
					</trkpt>
					<trkpt lat="43.759100" lon="4.772700">
						<ele>226</ele>
						<time>2026-02-13T16:57:11Z</time>
					</trkpt>
					<trkpt lat="43.759380" lon="4.772420">
						<ele>223</ele>
						<time>2026-02-13T16:57:57Z</time>
					</trkpt>
					<trkpt lat="43.759420" lon="4.772030">
						<ele>224</ele>
						<time>2026-02-13T16:58:35Z</time>
					</trkpt>
					<trkpt lat="43.759350" lon="4.771580">
						<ele>224</ele>
						<time>2026-02-13T16:59:20Z</time>
					</trkpt>
					<trkpt lat="43.759270" lon="4.771210">
						<ele>223</ele>
						<time>2026-02-13T16:59:57Z</time>
					</trkpt>
					<trkpt lat="43.759400" lon="4.770880">
						<ele>224</ele>
						<time>2026-02-13T17:00:33Z</time>
					</trkpt>
					<trkpt lat="43.759670" lon="4.770560">
						<ele>223</ele>
						<time>2026-02-13T17:01:21Z</time>
					</trkpt>
					<trkpt lat="43.759990" lon="4.770080">
						<ele>223</ele>
						<time>2026-02-13T17:02:24Z</time>
					</trkpt>
					<trkpt lat="43.760290" lon="4.769670">
						<ele>220</ele>
						<time>2026-02-13T17:03:20Z</time>
					</trkpt>
					<trkpt lat="43.760450" lon="4.769400">
						<ele>221</ele>
						<time>2026-02-13T17:03:54Z</time>
					</trkpt>
					<trkpt lat="43.760360" lon="4.768920">
						<ele>220</ele>
						<time>2026-02-13T17:04:41Z</time>
					</trkpt>
					<trkpt lat="43.760180" lon="4.768350">
						<ele>222</ele>
						<time>2026-02-13T17:05:41Z</time>
					</trkpt>
					<trkpt lat="43.760130" lon="4.767940">
						<ele>224</ele>
						<time>2026-02-13T17:06:21Z</time>
					</trkpt>
					<trkpt lat="43.760170" lon="4.767450">
						<ele>225</ele>
						<time>2026-02-13T17:07:09Z</time>
					</trkpt>
					<trkpt lat="43.760250" lon="4.766910">
						<ele>224</ele>
						<time>2026-02-13T17:08:02Z</time>
					</trkpt>
					<trkpt lat="43.760380" lon="4.766400">
						<ele>223</ele>
						<time>2026-02-13T17:08:54Z</time>
					</trkpt>
					<trkpt lat="43.760580" lon="4.765980">
						<ele>223</ele>
						<time>2026-02-13T17:09:43Z</time>
					</trkpt>
					<trkpt lat="43.760650" lon="4.765610">
						<ele>224</ele>
						<time>2026-02-13T17:10:20Z</time>
					</trkpt>
					<trkpt lat="43.760610" lon="4.764990">
						<ele>228</ele>
						<time>2026-02-13T17:11:20Z</time>
					</trkpt>
					<trkpt lat="43.760690" lon="4.764550">
						<ele>226</ele>
						<time>2026-02-13T17:12:03Z</time>
					</trkpt>
					<trkpt lat="43.760750" lon="4.764060">
						<ele>225</ele>
						<time>2026-02-13T17:12:51Z</time>
					</trkpt>
					<trkpt lat="43.760880" lon="4.763630">
						<ele>220</ele>
						<time>2026-02-13T17:13:36Z</time>
					</trkpt>
					<trkpt lat="43.761060" lon="4.763400">
						<ele>218</ele>
						<time>2026-02-13T17:14:09Z</time>
					</trkpt>
					<trkpt lat="43.761150" lon="4.763140">
						<ele>217</ele>
						<time>2026-02-13T17:14:37Z</time>
					</trkpt>
					<trkpt lat="43.761190" lon="4.762680">
						<ele>215</ele>
						<time>2026-02-13T17:15:21Z</time>
					</trkpt>
					<trkpt lat="43.761340" lon="4.762120">
						<ele>212</ele>
						<time>2026-02-13T17:16:19Z</time>
					</trkpt>
					<trkpt lat="43.761460" lon="4.761640">
						<ele>210</ele>
						<time>2026-02-13T17:17:08Z</time>
					</trkpt>
					<trkpt lat="43.761900" lon="4.761180">
						<ele>210</ele>
						<time>2026-02-13T17:18:21Z</time>
					</trkpt>
					<trkpt lat="43.762360" lon="4.761120">
						<ele>204</ele>
						<time>2026-02-13T17:19:23Z</time>
					</trkpt>
					<trkpt lat="43.762740" lon="4.760930">
						<ele>200</ele>
						<time>2026-02-13T17:20:17Z</time>
					</trkpt>
					<trkpt lat="43.762950" lon="4.760620">
						<ele>197</ele>
						<time>2026-02-13T17:20:58Z</time>
					</trkpt>
					<trkpt lat="43.763220" lon="4.760790">
						<ele>194</ele>
						<time>2026-02-13T17:21:37Z</time>
					</trkpt>
					<trkpt lat="43.763520" lon="4.760820">
						<ele>191</ele>
						<time>2026-02-13T17:22:18Z</time>
					</trkpt>
					<trkpt lat="43.763790" lon="4.760580">
						<ele>187</ele>
						<time>2026-02-13T17:23:00Z</time>
					</trkpt>
					<trkpt lat="43.763720" lon="4.760280">
						<ele>186</ele>
						<time>2026-02-13T17:23:31Z</time>
					</trkpt>
					<trkpt lat="43.763620" lon="4.760120">
						<ele>186</ele>
						<time>2026-02-13T17:23:51Z</time>
					</trkpt>
					<trkpt lat="43.763450" lon="4.760090">
						<ele>188</ele>
						<time>2026-02-13T17:24:14Z</time>
					</trkpt>
					<trkpt lat="43.763330" lon="4.759750">
						<ele>187</ele>
						<time>2026-02-13T17:24:51Z</time>
					</trkpt>
					<trkpt lat="43.763300" lon="4.759440">
						<ele>186</ele>
						<time>2026-02-13T17:25:21Z</time>
					</trkpt>
					<trkpt lat="43.763190" lon="4.759210">
						<ele>187</ele>
						<time>2026-02-13T17:25:47Z</time>
					</trkpt>
					<trkpt lat="43.763150" lon="4.759030">
						<ele>187</ele>
						<time>2026-02-13T17:26:05Z</time>
					</trkpt>
					<trkpt lat="43.763010" lon="4.758830">
						<ele>190</ele>
						<time>2026-02-13T17:26:32Z</time>
					</trkpt>
					<trkpt lat="43.763250" lon="4.758580">
						<ele>184</ele>
						<time>2026-02-13T17:27:12Z</time>
					</trkpt>
					<trkpt lat="43.763330" lon="4.758230">
						<ele>181</ele>
						<time>2026-02-13T17:27:48Z</time>
					</trkpt>
					<trkpt lat="43.763250" lon="4.758010">
						<ele>181</ele>
						<time>2026-02-13T17:28:11Z</time>
					</trkpt>
					<trkpt lat="43.763070" lon="4.757930">
						<ele>184</ele>
						<time>2026-02-13T17:28:37Z</time>
					</trkpt>
					<trkpt lat="43.762890" lon="4.757910">
						<ele>188</ele>
						<time>2026-02-13T17:29:01Z</time>
					</trkpt>
					<trkpt lat="43.762910" lon="4.757550">
						<ele>185</ele>
						<time>2026-02-13T17:29:36Z</time>
					</trkpt>
					<trkpt lat="43.762850" lon="4.757050">
						<ele>182</ele>
						<time>2026-02-13T17:30:24Z</time>
					</trkpt>
					<trkpt lat="43.762830" lon="4.756610">
						<ele>179</ele>
						<time>2026-02-13T17:31:07Z</time>
					</trkpt>
					<trkpt lat="43.762650" lon="4.756500">
						<ele>179</ele>
						<time>2026-02-13T17:31:33Z</time>
					</trkpt>
					<trkpt lat="43.762330" lon="4.756670">
						<ele>183</ele>
						<time>2026-02-13T17:32:19Z</time>
					</trkpt>
					<trkpt lat="43.762010" lon="4.756820">
						<ele>187</ele>
						<time>2026-02-13T17:33:04Z</time>
					</trkpt>
					<trkpt lat="43.761870" lon="4.757030">
						<ele>190</ele>
						<time>2026-02-13T17:33:32Z</time>
					</trkpt>
					<trkpt lat="43.761700" lon="4.756810">
						<ele>189</ele>
						<time>2026-02-13T17:34:03Z</time>
					</trkpt>
					<trkpt lat="43.761380" lon="4.756640">
						<ele>192</ele>
						<time>2026-02-13T17:34:48Z</time>
					</trkpt>
					<trkpt lat="43.761390" lon="4.756550">
						<ele>192</ele>
						<time>2026-02-13T17:34:57Z</time>
					</trkpt>
					<trkpt lat="43.761680" lon="4.756430">
						<ele>189</ele>
						<time>2026-02-13T17:35:37Z</time>
					</trkpt>
					<trkpt lat="43.761930" lon="4.755990">
						<ele>188</ele>
						<time>2026-02-13T17:36:31Z</time>
					</trkpt>
					<trkpt lat="43.762050" lon="4.755590">
						<ele>189</ele>
						<time>2026-02-13T17:37:13Z</time>
					</trkpt>
					<trkpt lat="43.762370" lon="4.755390">
						<ele>185</ele>
						<time>2026-02-13T17:38:00Z</time>
					</trkpt>
					<trkpt lat="43.762610" lon="4.755120">
						<ele>184</ele>
						<time>2026-02-13T17:38:41Z</time>
					</trkpt>
					<trkpt lat="43.763000" lon="4.754860">
						<ele>175</ele>
						<time>2026-02-13T17:39:39Z</time>
					</trkpt>
					<trkpt lat="43.763120" lon="4.754330">
						<ele>174</ele>
						<time>2026-02-13T17:40:33Z</time>
					</trkpt>
					<trkpt lat="43.763160" lon="4.753690">
						<ele>172</ele>
						<time>2026-02-13T17:41:34Z</time>
					</trkpt>
					<trkpt lat="43.762930" lon="4.753460">
						<ele>173</ele>
						<time>2026-02-13T17:42:12Z</time>
					</trkpt>
					<trkpt lat="43.762630" lon="4.753340">
						<ele>173</ele>
						<time>2026-02-13T17:42:54Z</time>
					</trkpt>
					<trkpt lat="43.762300" lon="4.753590">
						<ele>179</ele>
						<time>2026-02-13T17:43:44Z</time>
					</trkpt>
					<trkpt lat="43.761940" lon="4.753950">
						<ele>186</ele>
						<time>2026-02-13T17:44:43Z</time>
					</trkpt>
					<trkpt lat="43.761810" lon="4.753890">
						<ele>186</ele>
						<time>2026-02-13T17:45:02Z</time>
					</trkpt>
					<trkpt lat="43.761770" lon="4.753360">
						<ele>178</ele>
						<time>2026-02-13T17:45:53Z</time>
					</trkpt>
					<trkpt lat="43.761650" lon="4.753090">
						<ele>176</ele>
						<time>2026-02-13T17:46:24Z</time>
					</trkpt>
					<trkpt lat="43.760940" lon="4.753360">
						<ele>186</ele>
						<time>2026-02-13T17:48:02Z</time>
					</trkpt>
					<trkpt lat="43.760870" lon="4.753340">
						<ele>187</ele>
						<time>2026-02-13T17:48:11Z</time>
					</trkpt>
					<trkpt lat="43.760850" lon="4.753240">
						<ele>187</ele>
						<time>2026-02-13T17:48:21Z</time>
					</trkpt>
					<trkpt lat="43.761130" lon="4.752700">
						<ele>184</ele>
						<time>2026-02-13T17:49:26Z</time>
					</trkpt>
					<trkpt lat="43.761220" lon="4.752370">
						<ele>182</ele>
						<time>2026-02-13T17:50:00Z</time>
					</trkpt>
					<trkpt lat="43.761180" lon="4.751870">
						<ele>185</ele>
						<time>2026-02-13T17:50:48Z</time>
					</trkpt>
					<trkpt lat="43.761210" lon="4.751620">
						<ele>185</ele>
						<time>2026-02-13T17:51:12Z</time>
					</trkpt>
					<trkpt lat="43.761330" lon="4.751520">
						<ele>184</ele>
						<time>2026-02-13T17:51:31Z</time>
					</trkpt>
					<trkpt lat="43.761470" lon="4.751800">
						<ele>179</ele>
						<time>2026-02-13T17:52:04Z</time>
					</trkpt>
					<trkpt lat="43.761620" lon="4.752020">
						<ele>174</ele>
						<time>2026-02-13T17:52:33Z</time>
					</trkpt>
					<trkpt lat="43.762040" lon="4.752090">
						<ele>170</ele>
						<time>2026-02-13T17:53:30Z</time>
					</trkpt>
					<trkpt lat="43.762470" lon="4.752070">
						<ele>166</ele>
						<time>2026-02-13T17:54:27Z</time>
					</trkpt>
					<trkpt lat="43.762830" lon="4.752040">
						<ele>163</ele>
						<time>2026-02-13T17:55:15Z</time>
					</trkpt>
					<trkpt lat="43.762980" lon="4.751870">
						<ele>161</ele>
						<time>2026-02-13T17:55:41Z</time>
					</trkpt>
					<trkpt lat="43.762910" lon="4.751600">
						<ele>162</ele>
						<time>2026-02-13T17:56:09Z</time>
					</trkpt>
					<trkpt lat="43.762980" lon="4.751430">
						<ele>163</ele>
						<time>2026-02-13T17:56:27Z</time>
					</trkpt>
					<trkpt lat="43.763250" lon="4.751600">
						<ele>158</ele>
						<time>2026-02-13T17:57:07Z</time>
					</trkpt>
					<trkpt lat="43.763420" lon="4.751740">
						<ele>155</ele>
						<time>2026-02-13T17:57:33Z</time>
					</trkpt>
					<trkpt lat="43.763640" lon="4.751520">
						<ele>154</ele>
						<time>2026-02-13T17:58:10Z</time>
					</trkpt>
					<trkpt lat="43.764040" lon="4.751350">
						<ele>151</ele>
						<time>2026-02-13T17:59:06Z</time>
					</trkpt>
					<trkpt lat="43.764470" lon="4.751190">
						<ele>145</ele>
						<time>2026-02-13T18:00:05Z</time>
					</trkpt>
					<trkpt lat="43.764870" lon="4.751090">
						<ele>138</ele>
						<time>2026-02-13T18:00:59Z</time>
					</trkpt>
					<trkpt lat="43.764970" lon="4.750860">
						<ele>136</ele>
						<time>2026-02-13T18:01:25Z</time>
					</trkpt>
					<trkpt lat="43.764890" lon="4.750590">
						<ele>136</ele>
						<time>2026-02-13T18:01:53Z</time>
					</trkpt>
					<trkpt lat="43.764840" lon="4.750240">
						<ele>136</ele>
						<time>2026-02-13T18:02:28Z</time>
					</trkpt>
					<trkpt lat="43.764770" lon="4.750030">
						<ele>136</ele>
						<time>2026-02-13T18:02:50Z</time>
					</trkpt>
					<trkpt lat="43.764600" lon="4.749940">
						<ele>139</ele>
						<time>2026-02-13T18:03:14Z</time>
					</trkpt>
					<trkpt lat="43.764400" lon="4.749800">
						<ele>140</ele>
						<time>2026-02-13T18:03:44Z</time>
					</trkpt>
					<trkpt lat="43.764160" lon="4.749570">
						<ele>140</ele>
						<time>2026-02-13T18:04:23Z</time>
					</trkpt>
					<trkpt lat="43.764200" lon="4.749460">
						<ele>138</ele>
						<time>2026-02-13T18:04:35Z</time>
					</trkpt>
					<trkpt lat="43.764440" lon="4.749640">
						<ele>138</ele>
						<time>2026-02-13T18:05:11Z</time>
					</trkpt>
					<trkpt lat="43.764750" lon="4.749790">
						<ele>135</ele>
						<time>2026-02-13T18:05:55Z</time>
					</trkpt>
					<trkpt lat="43.764980" lon="4.749830">
						<ele>132</ele>
						<time>2026-02-13T18:06:26Z</time>
					</trkpt>
					<trkpt lat="43.765010" lon="4.749710">
						<ele>131</ele>
						<time>2026-02-13T18:06:38Z</time>
					</trkpt>
					<trkpt lat="43.764870" lon="4.749590">
						<ele>133</ele>
						<time>2026-02-13T18:07:00Z</time>
					</trkpt>
					<trkpt lat="43.764680" lon="4.749370">
						<ele>133</ele>
						<time>2026-02-13T18:07:33Z</time>
					</trkpt>
					<trkpt lat="43.764550" lon="4.749230">
						<ele>133</ele>
						<time>2026-02-13T18:07:55Z</time>
					</trkpt>
					<trkpt lat="43.764460" lon="4.749150">
						<ele>133</ele>
						<time>2026-02-13T18:08:10Z</time>
					</trkpt>
					<trkpt lat="43.764430" lon="4.748900">
						<ele>132</ele>
						<time>2026-02-13T18:08:34Z</time>
					</trkpt>
					<trkpt lat="43.764580" lon="4.748640">
						<ele>130</ele>
						<time>2026-02-13T18:09:06Z</time>
					</trkpt>
					<trkpt lat="43.764790" lon="4.748420">
						<ele>125</ele>
						<time>2026-02-13T18:09:41Z</time>
					</trkpt>
					<trkpt lat="43.764990" lon="4.748230">
						<ele>122</ele>
						<time>2026-02-13T18:10:14Z</time>
					</trkpt>
					<trkpt lat="43.765230" lon="4.747870">
						<ele>123</ele>
						<time>2026-02-13T18:11:01Z</time>
					</trkpt>
					<trkpt lat="43.765500" lon="4.747350">
						<ele>121</ele>
						<time>2026-02-13T18:12:02Z</time>
					</trkpt>
					<trkpt lat="43.765690" lon="4.746720">
						<ele>116</ele>
						<time>2026-02-13T18:13:08Z</time>
					</trkpt>
					<trkpt lat="43.765660" lon="4.746250">
						<ele>113</ele>
						<time>2026-02-13T18:13:54Z</time>
					</trkpt>
					<trkpt lat="43.765670" lon="4.746080">
						<ele>112</ele>
						<time>2026-02-13T18:14:10Z</time>
					</trkpt>
					<trkpt lat="43.765560" lon="4.745780">
						<ele>112</ele>
						<time>2026-02-13T18:14:43Z</time>
					</trkpt>
					<trkpt lat="43.765340" lon="4.745460">
						<ele>113</ele>
						<time>2026-02-13T18:15:25Z</time>
					</trkpt>
					<trkpt lat="43.765210" lon="4.745120">
						<ele>112</ele>
						<time>2026-02-13T18:16:02Z</time>
					</trkpt>
					<trkpt lat="43.765080" lon="4.744760">
						<ele>110</ele>
						<time>2026-02-13T18:16:41Z</time>
					</trkpt>
					<trkpt lat="43.764930" lon="4.744130">
						<ele>108</ele>
						<time>2026-02-13T18:17:45Z</time>
					</trkpt>
					<trkpt lat="43.764880" lon="4.743850">
						<ele>108</ele>
						<time>2026-02-13T18:18:13Z</time>
					</trkpt>
					<trkpt lat="43.764890" lon="4.743430">
						<ele>106</ele>
						<time>2026-02-13T18:18:53Z</time>
					</trkpt>
					<trkpt lat="43.765050" lon="4.743050">
						<ele>103</ele>
						<time>2026-02-13T18:19:36Z</time>
					</trkpt>
					<trkpt lat="43.765120" lon="4.742680">
						<ele>104</ele>
						<time>2026-02-13T18:20:13Z</time>
					</trkpt>
					<trkpt lat="43.765170" lon="4.742370">
						<ele>103</ele>
						<time>2026-02-13T18:20:43Z</time>
					</trkpt>
					<trkpt lat="43.765110" lon="4.741810">
						<ele>99</ele>
						<time>2026-02-13T18:21:38Z</time>
					</trkpt>
					<trkpt lat="43.765020" lon="4.741430">
						<ele>96</ele>
						<time>2026-02-13T18:22:16Z</time>
					</trkpt>
					<trkpt lat="43.764850" lon="4.740990">
						<ele>96</ele>
						<time>2026-02-13T18:23:04Z</time>
					</trkpt>
					<trkpt lat="43.764730" lon="4.740510">
						<ele>96</ele>
						<time>2026-02-13T18:23:53Z</time>
					</trkpt>
					<trkpt lat="43.764580" lon="4.739870">
						<ele>96</ele>
						<time>2026-02-13T18:24:58Z</time>
					</trkpt>
					<trkpt lat="43.764490" lon="4.739460">
						<ele>96</ele>
						<time>2026-02-13T18:25:39Z</time>
					</trkpt>
					<trkpt lat="43.764320" lon="4.739000">
						<ele>95</ele>
						<time>2026-02-13T18:26:29Z</time>
					</trkpt>
					<trkpt lat="43.764280" lon="4.738820">
						<ele>94</ele>
						<time>2026-02-13T18:26:47Z</time>
					</trkpt>
					<trkpt lat="43.764260" lon="4.738420">
						<ele>90</ele>
						<time>2026-02-13T18:27:26Z</time>
					</trkpt>
					<trkpt lat="43.764390" lon="4.737800">
						<ele>86</ele>
						<time>2026-02-13T18:28:28Z</time>
					</trkpt>
					<trkpt lat="43.764590" lon="4.737290">
						<ele>84</ele>
						<time>2026-02-13T18:29:24Z</time>
					</trkpt>
					<trkpt lat="43.764910" lon="4.737070">
						<ele>82</ele>
						<time>2026-02-13T18:30:12Z</time>
					</trkpt>
					<trkpt lat="43.765400" lon="4.736440">
						<ele>82</ele>
						<time>2026-02-13T18:31:41Z</time>
					</trkpt>
					<trkpt lat="43.765830" lon="4.735750">
						<ele>78</ele>
						<time>2026-02-13T18:33:09Z</time>
					</trkpt>
					<trkpt lat="43.766350" lon="4.735090">
						<ele>78</ele>
						<time>2026-02-13T18:34:43Z</time>
					</trkpt>
					<trkpt lat="43.767070" lon="4.734320">
						<ele>77</ele>
						<time>2026-02-13T18:36:44Z</time>
					</trkpt>
					<trkpt lat="43.767680" lon="4.733840">
						<ele>74</ele>
						<time>2026-02-13T18:38:18Z</time>
					</trkpt>
					<trkpt lat="43.768150" lon="4.733490">
						<ele>71</ele>
						<time>2026-02-13T18:39:29Z</time>
					</trkpt>
					<trkpt lat="43.768670" lon="4.733190">
						<ele>66</ele>
						<time>2026-02-13T18:40:44Z</time>
					</trkpt>
					<trkpt lat="43.768930" lon="4.733050">
						<ele>65</ele>
						<time>2026-02-13T18:41:22Z</time>
					</trkpt>
					<trkpt lat="43.769010" lon="4.732880">
						<ele>65</ele>
						<time>2026-02-13T18:41:41Z</time>
					</trkpt>
					<trkpt lat="43.769050" lon="4.732680">
						<ele>66</ele>
						<time>2026-02-13T18:42:01Z</time>
					</trkpt>
					<trkpt lat="43.769080" lon="4.732520">
						<ele>67</ele>
						<time>2026-02-13T18:42:17Z</time>
					</trkpt>
					</trkseg>
				</trk>
			</gpx>